createdAt,value
2022-10-08T00:01:23.627Z,15.20
2022-10-08T00:03:53.990Z,15.20
2022-10-08T00:06:23.438Z,15.20
2022-10-08T00:08:53.030Z,15.20
2022-10-08T00:11:22.473Z,15.10
2022-10-08T00:13:52.742Z,15.10
2022-10-08T00:16:23.005Z,15.10
2022-10-08T00:18:52.551Z,15.00
2022-10-08T00:21:22.277Z,15.00
2022-10-08T00:23:51.492Z,15.00
2022-10-08T00:26:23.624Z,15.00
2022-10-08T00:28:54.868Z,15.00
2022-10-08T00:31:25.510Z,14.90
2022-10-08T00:33:56.341Z,14.90
2022-10-08T00:36:25.953Z,14.90
2022-10-08T00:38:57.101Z,14.90
2022-10-08T00:41:27.428Z,14.90
2022-10-08T00:43:58.511Z,14.90
2022-10-08T00:46:31.326Z,14.90
2022-10-08T00:49:03.560Z,14.90
2022-10-08T00:51:33.069Z,15.00
2022-10-08T00:54:02.252Z,14.90
2022-10-08T00:56:31.990Z,15.00
2022-10-08T00:59:02.101Z,15.00
2022-10-08T01:01:30.459Z,15.00
2022-10-08T01:03:58.872Z,15.00
2022-10-08T01:06:29.641Z,15.00
2022-10-08T01:09:04.061Z,15.10
2022-10-08T01:11:44.670Z,15.00
2022-10-08T01:14:25.913Z,15.00
2022-10-08T01:17:01.565Z,15.00
2022-10-08T01:19:54.766Z,15.00
2022-10-08T01:22:37.762Z,15.00
2022-10-08T01:25:33.831Z,15.00
2022-10-08T01:28:09.254Z,15.00
2022-10-08T01:30:40.981Z,15.00
2022-10-08T01:33:14.074Z,15.00
2022-10-08T01:35:45.177Z,15.00
2022-10-08T01:38:17.715Z,15.00
2022-10-08T01:40:48.070Z,15.00
2022-10-08T01:43:20.917Z,15.00
2022-10-08T01:45:54.696Z,15.00
2022-10-08T01:48:27.363Z,15.00
2022-10-08T01:50:59.105Z,15.00
2022-10-08T01:53:33.460Z,15.00
2022-10-08T01:56:04.887Z,15.00
2022-10-08T01:58:39.067Z,15.00
2022-10-08T02:01:12.884Z,15.00
2022-10-08T02:04:01.057Z,15.00
2022-10-08T02:06:31.290Z,15.00
2022-10-08T02:08:59.098Z,15.00
2022-10-08T02:11:26.901Z,15.00
2022-10-08T02:13:56.353Z,14.90
2022-10-08T02:16:29.503Z,15.00
2022-10-08T02:19:05.411Z,15.00
2022-10-08T02:21:34.269Z,15.00
2022-10-08T02:24:10.772Z,15.00
2022-10-08T02:26:43.421Z,15.00
2022-10-08T02:29:17.778Z,15.00
2022-10-08T02:31:49.297Z,15.00
2022-10-08T02:34:21.541Z,15.00
2022-10-08T02:36:55.790Z,15.00
2022-10-08T02:39:27.193Z,15.00
2022-10-08T02:41:59.883Z,15.00
2022-10-08T02:44:33.884Z,15.00
2022-10-08T02:47:03.785Z,15.00
2022-10-08T02:49:35.782Z,14.90
2022-10-08T02:52:06.011Z,14.90
2022-10-08T02:54:37.129Z,14.90
2022-10-08T02:57:10.987Z,14.90
2022-10-08T02:59:40.440Z,14.90
2022-10-08T03:02:08.313Z,14.90
2022-10-08T03:04:40.249Z,14.90
2022-10-08T03:07:09.584Z,14.90
2022-10-08T03:09:39.998Z,14.90
2022-10-08T03:12:08.537Z,14.90
2022-10-08T03:14:40.975Z,14.90
2022-10-08T03:17:09.776Z,14.90
2022-10-08T03:19:37.696Z,14.90
2022-10-08T03:22:06.189Z,14.90
2022-10-08T03:24:34.250Z,14.90
2022-10-08T03:27:02.063Z,14.90
2022-10-08T03:29:29.919Z,14.90
2022-10-08T03:31:59.068Z,14.90
2022-10-08T03:34:27.244Z,14.90
2022-10-08T03:36:55.045Z,14.90
2022-10-08T03:39:22.921Z,14.90
2022-10-08T03:41:50.739Z,14.90
2022-10-08T03:44:18.533Z,14.90
2022-10-08T03:46:46.333Z,14.90
2022-10-08T03:49:15.627Z,15.00
2022-10-08T03:51:43.425Z,14.90
2022-10-08T03:54:11.266Z,14.90
2022-10-08T03:56:39.095Z,14.90
2022-10-08T03:59:06.887Z,14.90
2022-10-08T04:01:34.779Z,14.90
2022-10-08T04:04:02.667Z,14.90
2022-10-08T04:06:32.093Z,14.90
2022-10-08T04:09:01.107Z,14.90
2022-10-08T04:11:29.830Z,14.90
2022-10-08T04:13:57.715Z,14.90
2022-10-08T04:16:25.517Z,14.90
2022-10-08T04:18:53.317Z,14.90
2022-10-08T04:21:21.413Z,14.90
2022-10-08T04:23:50.670Z,15.00
2022-10-08T04:26:18.771Z,15.00
2022-10-08T04:28:47.948Z,15.00
2022-10-08T04:31:18.013Z,15.00
2022-10-08T04:33:46.923Z,15.00
2022-10-08T04:36:16.497Z,15.00
2022-10-08T04:38:45.157Z,15.00
2022-10-08T04:41:16.677Z,15.00
2022-10-08T04:43:46.134Z,15.00
2022-10-08T04:46:15.840Z,15.00
2022-10-08T04:48:47.816Z,15.00
2022-10-08T04:51:15.900Z,15.00
2022-10-08T04:53:44.049Z,15.00
2022-10-08T04:56:15.116Z,15.00
2022-10-08T04:58:42.985Z,15.00
2022-10-08T05:01:13.770Z,15.00
2022-10-08T05:03:43.405Z,15.00
2022-10-08T05:06:11.916Z,15.00
2022-10-08T05:08:40.081Z,15.00
2022-10-08T05:11:08.345Z,15.00
2022-10-08T05:13:37.840Z,15.00
2022-10-08T05:16:06.542Z,15.00
2022-10-08T05:18:35.182Z,15.00
2022-10-08T05:21:04.550Z,15.00
2022-10-08T05:23:32.420Z,15.00
2022-10-08T05:26:02.229Z,15.00
2022-10-08T05:28:30.283Z,15.00
2022-10-08T05:31:02.519Z,15.00
2022-10-08T05:33:30.417Z,15.00
2022-10-08T05:35:58.254Z,15.10
2022-10-08T05:38:26.061Z,15.10
2022-10-08T05:40:53.843Z,15.10
2022-10-08T05:43:21.644Z,15.10
2022-10-08T05:45:52.885Z,15.10
2022-10-08T05:48:22.070Z,15.10
2022-10-08T05:50:49.853Z,15.20
2022-10-08T05:53:17.654Z,15.20
2022-10-08T05:55:45.449Z,15.20
2022-10-08T05:58:13.292Z,15.30
2022-10-08T06:00:41.105Z,15.30
2022-10-08T06:03:08.986Z,15.30
2022-10-08T06:05:38.134Z,15.30
2022-10-08T06:08:05.992Z,15.30
2022-10-08T06:10:34.649Z,15.30
2022-10-08T06:13:02.447Z,15.40
2022-10-08T06:15:30.262Z,15.40
2022-10-08T06:17:58.453Z,15.40
2022-10-08T06:20:31.039Z,15.40
2022-10-08T06:23:01.117Z,15.50
2022-10-08T06:25:28.975Z,15.50
2022-10-08T06:27:56.744Z,15.50
2022-10-08T06:30:24.544Z,15.50
2022-10-08T06:32:52.357Z,15.60
2022-10-08T06:35:20.155Z,15.60
2022-10-08T06:37:48.896Z,15.70
2022-10-08T06:40:18.294Z,15.70
2022-10-08T06:42:46.470Z,15.80
2022-10-08T06:45:14.424Z,15.80
2022-10-08T06:47:42.277Z,15.90
2022-10-08T06:50:10.550Z,15.90
2022-10-08T06:52:38.344Z,16.00
2022-10-08T06:55:06.707Z,16.10
2022-10-08T06:57:35.857Z,16.10
2022-10-08T07:00:03.749Z,16.20
2022-10-08T07:02:32.400Z,16.30
2022-10-08T07:05:00.239Z,16.30
2022-10-08T07:07:28.066Z,16.40
2022-10-08T07:09:55.887Z,16.50
2022-10-08T07:12:23.702Z,16.50
2022-10-08T07:14:52.852Z,16.60
2022-10-08T07:17:20.652Z,16.70
2022-10-08T07:19:48.457Z,16.90
2022-10-08T07:22:16.270Z,17.10
2022-10-08T07:24:44.082Z,17.20
2022-10-08T07:27:12.158Z,17.30
2022-10-08T07:29:40.289Z,17.40
2022-10-08T07:32:09.454Z,17.50
2022-10-08T07:34:37.312Z,17.50
2022-10-08T07:37:05.193Z,17.60
2022-10-08T07:39:32.988Z,17.70
2022-10-08T07:42:00.788Z,17.90
2022-10-08T07:44:28.581Z,18.10
2022-10-08T07:46:56.378Z,18.30
2022-10-08T07:49:25.529Z,18.50
2022-10-08T07:51:53.304Z,18.80
2022-10-08T07:54:21.325Z,19.10
2022-10-08T07:56:49.381Z,19.40
2022-10-08T07:59:17.188Z,19.70
2022-10-08T08:01:45.588Z,19.80
2022-10-08T08:04:14.595Z,20.00
2022-10-08T08:06:47.405Z,20.10
2022-10-08T08:09:16.166Z,20.10
2022-10-08T08:11:43.973Z,20.10
2022-10-08T08:14:11.816Z,20.10
2022-10-08T08:16:40.219Z,20.00
2022-10-08T08:19:08.326Z,20.00
2022-10-08T08:21:38.114Z,19.90
2022-10-08T08:24:09.148Z,19.90
2022-10-08T08:26:38.959Z,20.00
2022-10-08T08:29:08.642Z,20.00
2022-10-08T08:31:38.269Z,20.20
2022-10-08T08:34:08.604Z,20.30
2022-10-08T08:36:38.146Z,20.40
2022-10-08T08:39:09.792Z,20.60
2022-10-08T08:41:55.654Z,20.70
2022-10-08T08:44:26.377Z,20.80
2022-10-08T08:47:00.234Z,20.80
2022-10-08T08:49:34.605Z,20.90
2022-10-08T08:52:04.722Z,21.00
2022-10-08T08:54:33.950Z,21.10
2022-10-08T08:57:16.054Z,21.10
2022-10-08T08:59:46.724Z,21.20
2022-10-08T09:02:23.720Z,21.30
2022-10-08T09:04:56.349Z,21.40
2022-10-08T09:07:28.685Z,21.50
2022-10-08T09:10:00.613Z,21.70
2022-10-08T09:12:33.976Z,21.80
2022-10-08T09:15:04.049Z,22.10
2022-10-08T09:17:34.016Z,22.50
2022-10-08T09:20:02.049Z,23.00
2022-10-08T09:22:32.313Z,23.50
2022-10-08T09:25:03.828Z,23.90
2022-10-08T09:27:45.274Z,24.30
2022-10-08T09:30:30.175Z,24.70
2022-10-08T09:33:01.030Z,24.90
2022-10-08T09:35:29.333Z,25.10
2022-10-08T09:37:59.936Z,25.10
2022-10-08T09:40:32.651Z,25.20
2022-10-08T09:43:12.101Z,25.20
2022-10-08T09:45:41.901Z,25.50
2022-10-08T09:48:22.551Z,25.70
2022-10-08T09:51:00.804Z,25.80
2022-10-08T09:53:33.669Z,26.10
2022-10-08T09:56:04.558Z,26.40
2022-10-08T09:58:34.261Z,27.00
2022-10-08T10:01:06.767Z,27.60
2022-10-08T10:03:36.296Z,28.00
2022-10-08T10:06:04.488Z,28.30
2022-10-08T10:08:57.915Z,28.50
2022-10-08T10:11:39.574Z,28.60
2022-10-08T10:14:17.681Z,28.50
2022-10-08T10:16:46.842Z,28.50
2022-10-08T10:19:19.480Z,28.70
2022-10-08T10:21:53.427Z,29.00
2022-10-08T10:24:45.674Z,29.30
2022-10-08T10:27:17.127Z,29.40
2022-10-08T10:29:55.909Z,29.30
2022-10-08T10:32:31.828Z,29.10
2022-10-08T10:35:06.920Z,28.70
2022-10-08T10:37:44.302Z,28.30
2022-10-08T10:40:46.838Z,28.00
2022-10-08T10:43:32.443Z,27.70
2022-10-08T10:46:07.046Z,27.30
2022-10-08T10:48:34.922Z,26.90
2022-10-08T10:51:24.512Z,26.50
2022-10-08T10:54:05.146Z,26.20
2022-10-08T10:56:38.258Z,25.80
2022-10-08T10:59:41.145Z,25.60
2022-10-08T11:02:17.664Z,25.30
2022-10-08T11:04:58.159Z,25.00
2022-10-08T11:07:49.832Z,24.80
2022-10-08T11:10:34.702Z,24.60
2022-10-08T11:13:17.152Z,24.40
2022-10-08T11:15:49.862Z,24.30
2022-10-08T11:18:29.269Z,24.10
2022-10-08T11:21:07.180Z,23.90
2022-10-08T11:23:48.597Z,23.80
2022-10-08T11:26:25.233Z,23.60
2022-10-08T11:29:02.003Z,23.50
2022-10-08T11:31:40.022Z,23.40
2022-10-08T11:34:20.742Z,23.20
2022-10-08T11:36:57.834Z,23.10
2022-10-08T11:39:31.269Z,23.00
2022-10-08T11:42:07.060Z,22.90
2022-10-08T11:44:35.024Z,22.80
2022-10-08T11:47:47.603Z,22.70
2022-10-08T11:50:28.653Z,22.60
2022-10-08T11:53:00.447Z,22.50
2022-10-08T11:55:31.558Z,22.50
2022-10-08T11:58:09.379Z,22.40
2022-10-08T12:00:42.734Z,22.40
2022-10-08T12:03:24.387Z,22.30
2022-10-08T12:05:55.000Z,22.30
2022-10-08T12:08:49.344Z,22.20
2022-10-08T12:11:49.028Z,22.20
2022-10-08T12:14:48.280Z,22.10
2022-10-08T12:17:17.104Z,22.00
2022-10-08T12:20:20.928Z,22.00
2022-10-08T12:23:07.825Z,21.90
2022-10-08T12:25:44.101Z,21.80
2022-10-08T12:28:53.717Z,21.70
2022-10-08T12:31:30.875Z,21.70
2022-10-08T12:34:04.211Z,21.60
2022-10-08T12:36:45.761Z,21.50
2022-10-08T12:39:22.021Z,21.50
2022-10-08T12:41:58.529Z,21.40
2022-10-08T12:44:44.896Z,21.30
2022-10-08T12:47:23.372Z,21.30
2022-10-08T12:49:58.014Z,21.20
2022-10-08T12:52:27.706Z,21.20
2022-10-08T12:54:57.663Z,21.10
2022-10-08T12:57:30.255Z,21.10
2022-10-08T12:59:59.808Z,21.00
2022-10-08T13:02:34.988Z,21.00
2022-10-08T13:05:03.045Z,20.90
2022-10-08T13:07:34.289Z,20.90
2022-10-08T13:10:16.598Z,20.90
2022-10-08T13:12:46.137Z,20.80
2022-10-08T13:15:23.724Z,20.80
2022-10-08T13:17:51.546Z,20.80
2022-10-08T13:20:21.141Z,20.80
2022-10-08T13:22:50.337Z,20.80
2022-10-08T13:25:36.437Z,20.80
2022-10-08T13:28:13.319Z,20.70
2022-10-08T13:30:41.730Z,20.70
2022-10-08T13:33:16.396Z,20.70
2022-10-08T13:35:45.348Z,20.70
2022-10-08T13:38:22.453Z,20.70
2022-10-08T13:40:52.158Z,20.70
2022-10-08T13:43:20.317Z,20.60
2022-10-08T13:45:48.222Z,20.60
2022-10-08T13:48:16.232Z,20.60
2022-10-08T13:50:45.491Z,20.60
2022-10-08T13:53:14.968Z,20.60
2022-10-08T13:55:46.645Z,20.50
2022-10-08T13:58:16.006Z,20.50
2022-10-08T14:00:45.593Z,20.50
2022-10-08T14:03:14.102Z,20.40
2022-10-08T14:05:44.355Z,20.40
2022-10-08T14:08:16.514Z,20.40
2022-10-08T14:10:46.036Z,20.40
2022-10-08T14:13:14.607Z,20.30
2022-10-08T14:15:42.681Z,20.30
2022-10-08T14:18:10.575Z,20.20
2022-10-08T14:20:39.176Z,20.20
2022-10-08T14:23:07.118Z,20.20
2022-10-08T14:25:34.922Z,20.10
2022-10-08T14:28:04.130Z,20.10
2022-10-08T14:30:31.973Z,20.10
2022-10-08T14:32:59.774Z,20.00
2022-10-08T14:35:27.639Z,20.00
2022-10-08T14:37:55.452Z,20.00
2022-10-08T14:40:23.893Z,20.00
2022-10-08T14:42:52.080Z,20.00
2022-10-08T14:45:22.736Z,19.90
2022-10-08T14:47:50.715Z,19.90
2022-10-08T14:50:18.607Z,19.90
2022-10-08T14:52:47.190Z,19.80
2022-10-08T14:55:15.211Z,19.80
2022-10-08T14:57:43.045Z,19.70
2022-10-08T15:00:13.081Z,19.70
2022-10-08T15:02:42.266Z,19.70
2022-10-08T15:05:10.438Z,19.60
2022-10-08T15:07:38.237Z,19.60
2022-10-08T15:10:06.698Z,19.50
2022-10-08T15:12:34.513Z,19.50
2022-10-08T15:15:02.365Z,19.50
2022-10-08T15:17:30.173Z,19.40
2022-10-08T15:19:59.555Z,19.40
2022-10-08T15:22:27.346Z,19.30
2022-10-08T15:24:55.177Z,19.30
2022-10-08T15:27:22.955Z,19.30
2022-10-08T15:29:50.809Z,19.20
2022-10-08T15:32:18.605Z,19.30
2022-10-08T15:34:46.393Z,19.20
2022-10-08T15:37:15.594Z,19.20
2022-10-08T15:39:43.551Z,19.10
2022-10-08T15:42:12.881Z,19.00
2022-10-08T15:44:43.450Z,19.00
2022-10-08T15:47:12.098Z,19.00
2022-10-08T15:49:41.658Z,18.90
2022-10-08T15:52:11.614Z,18.90
2022-10-08T15:54:41.984Z,18.80
2022-10-08T15:57:11.196Z,18.70
2022-10-08T15:59:39.402Z,18.70
2022-10-08T16:02:11.700Z,18.60
2022-10-08T16:04:41.978Z,18.60
2022-10-08T16:07:10.157Z,18.60
2022-10-08T16:09:38.011Z,18.50
2022-10-08T16:12:07.186Z,18.50
2022-10-08T16:14:35.257Z,18.40
2022-10-08T16:17:03.206Z,18.40
2022-10-08T16:19:31.244Z,18.40
2022-10-08T16:21:59.527Z,18.40
2022-10-08T16:24:27.497Z,18.30
2022-10-08T16:26:55.306Z,18.30
2022-10-08T16:29:24.459Z,18.30
2022-10-08T16:31:52.289Z,18.30
2022-10-08T16:34:22.355Z,18.20
2022-10-08T16:36:51.173Z,18.20
2022-10-08T16:39:20.742Z,18.20
2022-10-08T16:41:49.595Z,18.20
2022-10-08T16:44:19.464Z,18.20
2022-10-08T16:46:50.960Z,18.20
2022-10-08T16:49:24.734Z,18.10
2022-10-08T16:51:54.488Z,18.10
2022-10-08T16:54:23.084Z,18.10
2022-10-08T16:56:51.057Z,18.10
2022-10-08T16:59:20.984Z,18.00
2022-10-08T17:01:52.666Z,18.00
2022-10-08T17:04:22.021Z,18.00
2022-10-08T17:06:49.910Z,18.00
2022-10-08T17:09:17.957Z,17.90
2022-10-08T17:11:45.821Z,17.90
2022-10-08T17:14:14.309Z,17.90
2022-10-08T17:16:43.367Z,17.90
2022-10-08T17:19:12.821Z,17.90
2022-10-08T17:21:40.714Z,17.90
2022-10-08T17:24:08.943Z,17.90
2022-10-08T17:26:36.883Z,17.90
2022-10-08T17:29:06.805Z,17.90
2022-10-08T17:31:35.405Z,17.90
2022-10-08T17:34:03.993Z,17.90
2022-10-08T17:36:35.109Z,17.90
2022-10-08T17:39:05.336Z,17.80
2022-10-08T17:41:34.977Z,17.80
2022-10-08T17:44:03.976Z,17.80
2022-10-08T17:46:34.562Z,17.80
2022-10-08T17:49:03.097Z,17.80
2022-10-08T17:51:32.892Z,17.80
2022-10-08T17:54:02.784Z,17.80
2022-10-08T17:56:31.362Z,17.80
2022-10-08T17:59:00.157Z,17.70
2022-10-08T18:01:30.100Z,17.70
2022-10-08T18:03:59.614Z,17.70
2022-10-08T18:06:28.949Z,17.70
2022-10-08T18:08:59.735Z,17.70
2022-10-08T18:11:28.333Z,17.70
2022-10-08T18:13:56.189Z,17.70
2022-10-08T18:16:25.190Z,17.70
2022-10-08T18:18:53.041Z,17.60
2022-10-08T18:21:21.705Z,17.60
2022-10-08T18:23:50.490Z,17.60
2022-10-08T18:26:21.942Z,17.60
2022-10-08T18:28:51.814Z,17.60
2022-10-08T18:31:21.378Z,17.60
2022-10-08T18:33:51.032Z,17.60
2022-10-08T18:36:20.629Z,17.50
2022-10-08T18:38:54.100Z,17.50
2022-10-08T18:41:25.288Z,17.50
2022-10-08T18:43:53.709Z,17.50
2022-10-08T18:46:22.556Z,17.50
2022-10-08T18:48:51.220Z,17.50
2022-10-08T18:51:21.336Z,17.40
2022-10-08T18:53:50.325Z,17.40
2022-10-08T18:56:20.419Z,17.40
2022-10-08T18:58:50.617Z,17.40
2022-10-08T19:01:21.038Z,17.40
2022-10-08T19:03:49.916Z,17.30
2022-10-08T19:06:18.805Z,17.30
2022-10-08T19:08:46.818Z,17.30
2022-10-08T19:11:16.685Z,17.30
2022-10-08T19:13:44.773Z,17.30
2022-10-08T19:16:15.332Z,17.30
2022-10-08T19:18:44.142Z,17.30
2022-10-08T19:21:13.059Z,17.20
2022-10-08T19:23:41.500Z,17.20
2022-10-08T19:26:09.869Z,17.20
2022-10-08T19:28:39.753Z,17.20
2022-10-08T19:31:16.885Z,17.20
2022-10-08T19:33:49.437Z,17.20
2022-10-08T19:36:17.532Z,17.20
2022-10-08T19:38:45.373Z,17.20
2022-10-08T19:41:13.379Z,17.20
2022-10-08T19:43:43.715Z,17.20
2022-10-08T19:46:11.710Z,17.20
2022-10-08T19:48:40.959Z,17.20
2022-10-08T19:51:11.217Z,17.20
2022-10-08T19:53:39.613Z,17.20
2022-10-08T19:56:09.834Z,17.20
2022-10-08T19:58:38.147Z,17.10
2022-10-08T20:01:07.593Z,17.10
2022-10-08T20:03:35.694Z,17.10
2022-10-08T20:06:06.449Z,17.10
2022-10-08T20:08:34.322Z,17.10
2022-10-08T20:11:03.648Z,17.00
2022-10-08T20:13:31.472Z,17.00
2022-10-08T20:16:03.538Z,17.00
2022-10-08T20:18:31.568Z,17.00
2022-10-08T20:21:05.732Z,17.00
2022-10-08T20:23:34.129Z,17.00
2022-10-08T20:26:13.908Z,17.00
2022-10-08T20:28:41.929Z,17.00
2022-10-08T20:31:11.654Z,16.90
2022-10-08T20:33:41.324Z,16.90
2022-10-08T20:36:11.970Z,16.90
2022-10-08T20:38:40.345Z,16.90
2022-10-08T20:41:09.364Z,16.90
2022-10-08T20:43:39.211Z,16.90
2022-10-08T20:46:09.907Z,16.90
2022-10-08T20:48:38.922Z,16.90
2022-10-08T20:51:08.347Z,16.90
2022-10-08T20:53:37.815Z,16.90
2022-10-08T20:56:07.215Z,16.90
2022-10-08T20:58:36.650Z,16.90
2022-10-08T21:01:06.815Z,16.90
2022-10-08T21:03:36.131Z,16.80
2022-10-08T21:06:04.876Z,16.80
2022-10-08T21:08:33.118Z,16.80
2022-10-08T21:11:06.474Z,16.80
2022-10-08T21:13:35.449Z,16.80
2022-10-08T21:16:05.265Z,16.80
2022-10-08T21:18:33.533Z,16.80
2022-10-08T21:21:05.337Z,16.70
2022-10-08T21:23:33.360Z,16.70
2022-10-08T21:26:10.845Z,16.70
2022-10-08T21:28:39.189Z,16.70
2022-10-08T21:31:08.009Z,16.60
2022-10-08T21:33:37.149Z,16.60
2022-10-08T21:36:05.938Z,16.60
2022-10-08T21:38:34.679Z,16.60
2022-10-08T21:41:11.111Z,16.60
2022-10-08T21:43:40.497Z,16.60
2022-10-08T21:46:09.934Z,16.50
2022-10-08T21:48:38.589Z,16.50
2022-10-08T21:51:08.704Z,16.50
2022-10-08T21:53:39.621Z,16.50
2022-10-08T21:56:08.885Z,16.50
2022-10-08T21:58:38.376Z,16.60
2022-10-08T22:01:09.293Z,16.50
2022-10-08T22:03:37.138Z,16.50
2022-10-08T22:06:05.343Z,16.50
2022-10-08T22:08:33.358Z,16.50
2022-10-08T22:11:01.157Z,16.50
2022-10-08T22:13:28.962Z,16.50
2022-10-08T22:15:58.569Z,16.50
2022-10-08T22:18:31.107Z,16.50
2022-10-08T22:21:02.138Z,16.40
2022-10-08T22:23:30.001Z,16.40
2022-10-08T22:25:59.652Z,16.50
2022-10-08T22:28:28.838Z,16.40
2022-10-08T22:30:56.704Z,16.40
2022-10-08T22:33:24.529Z,16.40
2022-10-08T22:35:53.729Z,16.40
2022-10-08T22:38:21.549Z,16.40
2022-10-08T22:40:49.394Z,16.40
2022-10-08T22:43:17.228Z,16.30
2022-10-08T22:45:45.124Z,16.30
2022-10-08T22:48:12.942Z,16.30
2022-10-08T22:50:40.745Z,16.30
2022-10-08T22:53:09.880Z,16.30
2022-10-08T22:55:40.984Z,16.30
2022-10-08T22:58:08.831Z,16.30
2022-10-08T23:00:36.667Z,16.30
2022-10-08T23:03:04.667Z,16.30
2022-10-08T23:05:32.578Z,16.30
2022-10-08T23:08:00.418Z,16.30
2022-10-08T23:10:29.721Z,16.30
2022-10-08T23:12:57.521Z,16.20
2022-10-08T23:15:25.297Z,16.20
2022-10-08T23:17:53.094Z,16.20
2022-10-08T23:20:20.890Z,16.20
2022-10-08T23:22:48.900Z,16.20
2022-10-08T23:25:16.968Z,16.20
2022-10-08T23:27:46.121Z,16.20
2022-10-08T23:30:41.169Z,16.10
2022-10-08T23:33:01.761Z,16.10
2022-10-08T23:35:29.557Z,16.10
2022-10-08T23:37:57.362Z,16.10
2022-10-08T23:40:25.184Z,16.10
2022-10-08T23:42:54.342Z,16.00
2022-10-08T23:45:22.154Z,16.00
2022-10-08T23:47:49.939Z,16.00
2022-10-08T23:50:17.981Z,15.90
2022-10-08T23:52:46.410Z,15.90
2022-10-08T23:55:14.416Z,15.90
2022-10-08T23:57:42.223Z,15.90
